Paris-Orly Airport

LFPO · Essonne, Île-de-France, 法国

罗盘
风向 的 风向 240° Paris-Orly Airport 2/20
风: 10 kt, 3 beaufort

7 kt

7 kt
改变
0 ft 1.000 2.000 3.000 4.000 5.000
Cloud Cloud Cloud Cloud Cloud Cloud Cloud Cloud
OVC 3.300
METAR LFPM 030600Z AUTO 24010KT 9999 OVC033 07/04 Q1034

METAR Paris-Orly Airport - LFPO/ORY

Paris-Orly Airport是,法国中的大型机场。 该机场有3条跑道: 2/20, 7/25 和 6/24. 该领域的国际民航组织标志是LFPO 它的国际航空运输协会代码是ORY.

这份报告是针对2023年2月3日 07:00, 当地时间在Melun-Villaroche Air Base进行的。

机场观察

风向为240°,速度为10 kt。

可见度为10 km 或者更多。

有乌云密布在3.300 ft的高度。 破损或更高的上限为3.300 ft。

温度为7 °C,阵风为3 °C。 露点为4 °C,相对湿度为81%。 海平面上的气压为1034 hPa (QNH)。

白天

今天,太阳从08:17升起,在17:50降落。 这适用于Paris-Orly Airport,世界夏令时可能有所不同。 当地时间与世界标准时间之间的时差为+1 小时。 当前,没有夏令时有效。

公司介绍

在这个机场,你可以找到飞行俱乐部。 本场上唯一已知的公司是France DC3。

体会

到Vliegles.nl去找飞行课程,跳伞和其他飞行体验。 浏览页面,了解Paris-Orly Airport附近所有可用的活动。 你也可以使用搜索功能来寻找你所在地附近的特定飞行课程、跳伞或其他飞行体验。

跑道

Id 标题 侧风 逆风 侧风 %
2/20 018°-198° 7 kt 7 kt 67 %
7/25 074°-254° 2 kt 10 kt 24 %
6/24 061°-241° 10 kt 2 %

逆风成分最大的方向会被突出显示,并用于横风计算。 这并不一定意味着这个方向在使用。

乌云

3.300 ft OVC 乌云密布

温度 & 天气

温度 7 °C
露点 4 °C
相对湿度 81%
风寒 3 °C
Kp-index 0 (0-9)

白天

日出
08:16 (48m)
中午
13:03
日落
17:50

小工具

你想在你的网站上有一个关于Paris-Orly Airport的当前航空天气(METAR)的小部件吗?

显示HTML代码

我们和第三方通过cookies跟踪您在我们网站上的互联网行为。如果你继续,我们认为你同意我们的饼干政策